createdAt,value
2019-01-30T07:53:49.199Z,2.40
2019-01-30T07:54:48.434Z,2.00
2019-01-30T07:55:48.268Z,2.60
2019-01-30T07:56:50.154Z,2.40
2019-01-30T07:57:48.612Z,2.20
2019-01-30T07:58:48.210Z,1.90
2019-01-30T07:59:49.155Z,2.00
2019-01-30T08:00:54.898Z,2.30
2019-01-30T08:01:49.711Z,2.50
2019-01-30T08:02:53.243Z,2.40
2019-01-30T08:03:55.201Z,2.40
2019-01-30T08:04:47.701Z,2.20
2019-01-30T08:05:46.297Z,2.10
2019-01-30T08:06:47.753Z,2.10
2019-01-30T08:07:48.210Z,2.00
2019-01-30T08:08:49.673Z,2.10
2019-01-30T08:09:48.334Z,1.90
2019-01-30T08:10:49.655Z,2.00
2019-01-30T08:11:48.190Z,1.80
2019-01-30T08:12:48.322Z,1.90
2019-01-30T08:13:48.147Z,2.10
2019-01-30T08:14:50.320Z,1.70
2019-01-30T08:17:25.904Z,1.70
2019-01-30T08:18:26.438Z,2.00
2019-01-30T08:19:32.257Z,1.90
2019-01-30T08:20:31.346Z,1.70
2019-01-30T08:21:34.213Z,1.70
2019-01-30T08:22:26.041Z,1.80
2019-01-30T08:23:29.577Z,1.40
2019-01-30T08:24:26.282Z,1.60
2019-01-30T08:25:26.944Z,1.40
2019-01-30T08:26:27.383Z,1.30
2019-01-30T08:27:29.026Z,1.40
2019-01-30T08:28:27.035Z,1.60
2019-01-30T08:29:39.387Z,1.50
2019-01-30T08:30:26.019Z,1.50
2019-01-30T08:31:25.194Z,1.30
2019-01-30T08:32:25.329Z,1.40
2019-01-30T08:33:26.223Z,1.10
2019-01-30T08:34:35.923Z,1.30
2019-01-30T08:35:25.240Z,1.20
2019-01-30T08:36:25.405Z,1.10
2019-01-30T08:37:25.035Z,1.20
2019-01-30T08:38:25.790Z,1.30
2019-01-30T08:39:25.630Z,0.90
2019-01-30T08:40:25.784Z,1.50
2019-01-30T08:41:25.912Z,1.10
2019-01-30T08:42:25.386Z,1.30
2019-01-30T08:43:25.187Z,1.00
2019-01-30T08:44:29.974Z,1.00
2019-01-30T08:45:26.189Z,1.00
2019-01-30T08:46:27.582Z,1.10
2019-01-30T08:47:36.770Z,0.90
2019-01-30T08:48:24.096Z,0.90
2019-01-30T08:50:51.473Z,1.00
2019-01-30T08:51:42.373Z,1.00
2019-01-30T08:52:41.106Z,1.00
2019-01-30T08:53:42.131Z,1.00
2019-01-30T08:54:42.985Z,1.00
2019-01-30T08:55:40.574Z,0.90
2019-01-30T08:56:52.488Z,1.20
2019-01-30T08:57:49.837Z,1.00
2019-01-30T08:58:45.489Z,1.20
2019-01-30T08:59:40.656Z,0.90
2019-01-30T09:01:58.272Z,1.70
2019-01-30T09:02:56.823Z,1.00
2019-01-30T09:03:54.603Z,1.00
2019-01-30T09:05:00.340Z,1.20
2019-01-30T09:05:56.792Z,0.90
2019-01-30T09:06:56.628Z,0.90
2019-01-30T09:07:59.906Z,1.00
2019-01-30T09:08:58.494Z,1.00
2019-01-30T09:09:56.172Z,0.90
2019-01-30T09:10:56.740Z,1.00
2019-01-30T09:11:57.649Z,0.90
2019-01-30T09:12:56.415Z,0.90
2019-01-30T09:13:58.448Z,1.00
2019-01-30T09:15:00.564Z,1.00
2019-01-30T09:15:57.752Z,0.80
2019-01-30T09:16:54.593Z,1.20
2019-01-30T09:18:02.432Z,1.00
2019-01-30T09:18:56.481Z,1.10
2019-01-30T09:19:56.894Z,0.90
2019-01-30T09:20:55.741Z,1.00
2019-01-30T09:22:08.918Z,1.00
2019-01-30T09:22:57.943Z,1.00
2019-01-30T09:23:57.118Z,1.00
2019-01-30T09:24:58.776Z,0.90
2019-01-30T09:25:59.051Z,1.00
2019-01-30T09:27:01.058Z,1.00
2019-01-30T09:28:25.979Z,1.00
2019-01-30T09:29:01.405Z,0.80
2019-01-30T09:30:04.338Z,1.00
2019-01-30T09:31:11.024Z,1.00
2019-01-30T09:32:00.181Z,0.70
2019-01-30T09:32:55.455Z,0.80
2019-01-30T09:34:04.765Z,0.80
2019-01-30T09:34:55.818Z,1.10
2019-01-30T09:35:57.874Z,1.00
2019-01-30T09:36:55.931Z,1.20
2019-01-30T09:37:56.320Z,1.20
2019-01-30T09:38:56.341Z,1.00
2019-01-30T09:39:55.323Z,0.90
2019-01-30T09:40:55.337Z,1.20
2019-01-30T09:41:55.372Z,0.80
2019-01-30T09:42:56.109Z,0.80
2019-01-30T09:43:55.578Z,1.00
2019-01-30T09:44:58.497Z,1.10
2019-01-30T09:45:55.581Z,1.00
2019-01-30T09:46:56.065Z,0.70
2019-01-30T09:47:55.085Z,1.00
2019-01-30T09:48:57.313Z,1.00
2019-01-30T09:49:56.360Z,0.90
2019-01-30T09:50:57.735Z,0.90
2019-01-30T09:51:55.213Z,0.90
2019-01-30T09:52:55.715Z,1.00
2019-01-30T09:53:57.512Z,1.00
2019-01-30T09:55:03.653Z,1.00
2019-01-30T09:55:54.720Z,1.20
2019-01-30T09:56:55.190Z,0.90
2019-01-30T09:57:56.720Z,0.80
2019-01-30T09:58:57.628Z,1.20
2019-01-30T09:59:55.624Z,0.90
2019-01-30T10:00:58.234Z,1.00
2019-01-30T10:01:58.195Z,0.90
2019-01-30T10:02:57.620Z,0.90
2019-01-30T10:03:55.883Z,0.90
2019-01-30T10:04:57.322Z,0.90
2019-01-30T10:05:55.651Z,0.90
2019-01-30T10:06:55.220Z,0.80
2019-01-30T10:07:55.542Z,1.10
2019-01-30T10:08:57.989Z,0.90
2019-01-30T10:09:59.027Z,1.20
2019-01-30T10:11:04.749Z,0.80
2019-01-30T10:11:57.268Z,0.80
2019-01-30T10:12:59.165Z,0.80
2019-01-30T10:14:33.807Z,1.00
2019-01-30T10:14:57.645Z,1.00
2019-01-30T10:15:57.495Z,0.80
2019-01-30T10:16:58.773Z,1.10
2019-01-30T10:17:55.609Z,1.10
2019-01-30T10:18:56.657Z,1.00
2019-01-30T10:19:56.082Z,1.00
2019-01-30T10:21:03.370Z,1.00
2019-01-30T10:21:55.570Z,1.00
2019-01-30T10:22:57.534Z,0.80
2019-01-30T10:24:05.052Z,0.80
2019-01-30T10:25:04.607Z,1.30
2019-01-30T10:25:56.363Z,1.00
2019-01-30T10:26:58.829Z,1.10
2019-01-30T10:27:58.447Z,1.10
2019-01-30T10:28:55.450Z,1.20
2019-01-30T10:29:58.778Z,1.10
2019-01-30T10:31:01.720Z,1.00
2019-01-30T10:31:56.281Z,1.00
2019-01-30T10:33:06.258Z,1.20
2019-01-30T10:33:57.189Z,1.00
2019-01-30T10:35:24.014Z,0.90
2019-01-30T10:36:09.215Z,1.20
2019-01-30T10:36:53.668Z,1.30
2019-01-30T10:38:05.707Z,1.40
2019-01-30T10:39:06.250Z,1.50
2019-01-30T10:40:01.138Z,1.10
2019-01-30T10:40:56.902Z,1.80
2019-01-30T10:42:03.088Z,1.80
2019-01-30T10:42:57.135Z,1.80
2019-01-30T10:44:15.996Z,1.60
2019-01-30T10:44:55.768Z,1.70
2019-01-30T10:45:58.547Z,1.80
2019-01-30T10:46:57.004Z,1.60
2019-01-30T10:48:21.328Z,1.60
2019-01-30T10:49:04.045Z,1.30
2019-01-30T10:50:12.867Z,1.50
2019-01-30T10:50:53.548Z,1.40
2019-01-30T10:51:54.428Z,1.30
2019-01-30T10:53:26.022Z,1.60
2019-01-30T10:53:54.113Z,2.30
2019-01-30T10:54:53.572Z,2.20
2019-01-30T10:55:59.473Z,2.30
2019-01-30T10:56:57.903Z,2.70
2019-01-30T10:57:58.181Z,3.70
2019-01-30T10:58:58.709Z,2.60
2019-01-30T10:59:53.982Z,1.80
2019-01-30T11:01:20.485Z,1.60
2019-01-30T11:01:58.943Z,1.90
2019-01-30T11:02:58.130Z,1.60
2019-01-30T11:03:58.051Z,1.70
2019-01-30T11:04:58.924Z,2.10
2019-01-30T11:06:00.476Z,1.70
2019-01-30T11:06:55.465Z,1.80
2019-01-30T11:07:56.133Z,1.90
2019-01-30T11:08:58.696Z,1.80
2019-01-30T11:09:57.270Z,1.70
2019-01-30T11:11:07.287Z,1.50
2019-01-30T11:12:00.672Z,1.50
2019-01-30T11:12:54.788Z,1.80
2019-01-30T11:13:56.008Z,2.00
2019-01-30T11:14:58.892Z,1.90
2019-01-30T11:15:58.171Z,1.60
2019-01-30T11:16:55.648Z,1.50
2019-01-30T11:17:59.037Z,1.70
2019-01-30T11:18:59.146Z,1.90
2019-01-30T11:19:52.980Z,1.90
2019-01-30T11:20:53.002Z,1.80
2019-01-30T11:21:53.049Z,1.70
2019-01-30T11:22:55.279Z,1.70
2019-01-30T11:23:53.001Z,1.90
2019-01-30T11:24:53.042Z,1.80
2019-01-30T11:25:53.032Z,2.30
2019-01-30T11:26:59.826Z,1.80
2019-01-30T11:27:53.027Z,1.70
2019-01-30T11:28:52.982Z,2.20
2019-01-30T11:29:53.168Z,1.90
2019-01-30T11:30:52.938Z,1.70
2019-01-30T11:31:53.696Z,2.00
2019-01-30T11:32:55.532Z,1.90
2019-01-30T11:33:53.010Z,1.50
2019-01-30T11:34:53.219Z,2.00
2019-01-30T11:35:52.823Z,1.70
2019-01-30T11:36:52.931Z,1.70
2019-01-30T11:37:52.942Z,1.60
2019-01-30T11:38:55.774Z,1.80
2019-01-30T11:39:55.263Z,1.50
2019-01-30T11:40:56.118Z,1.60
2019-01-30T11:41:55.180Z,1.80
2019-01-30T11:42:54.637Z,1.60
2019-01-30T11:43:54.826Z,1.60
2019-01-30T11:44:56.851Z,1.50
2019-01-30T11:45:55.617Z,1.60
2019-01-30T11:46:58.661Z,1.50
2019-01-30T11:47:52.947Z,1.40
2019-01-30T11:48:57.032Z,1.40
2019-01-30T11:49:59.219Z,1.60
2019-01-30T11:51:00.121Z,1.50
2019-01-30T11:51:55.137Z,1.60
2019-01-30T11:52:58.286Z,1.40
2019-01-30T11:53:52.960Z,2.00
2019-01-30T11:54:52.729Z,1.50
2019-01-30T11:55:52.832Z,1.70
2019-01-30T11:56:56.261Z,1.50
2019-01-30T11:57:54.435Z,1.50
2019-01-30T11:58:58.795Z,1.30
2019-01-30T11:59:54.799Z,1.40
2019-01-30T12:00:55.136Z,1.50
2019-01-30T12:01:56.182Z,1.30
2019-01-30T12:02:54.968Z,1.30
2019-01-30T12:03:59.534Z,1.70
2019-01-30T12:04:55.368Z,1.50
2019-01-30T12:05:59.596Z,1.50
2019-01-30T12:06:55.979Z,1.50
2019-01-30T12:07:55.267Z,1.50
2019-01-30T12:09:09.324Z,1.60
2019-01-30T12:10:18.102Z,1.70
2019-01-30T12:10:55.963Z,1.70
2019-01-30T12:11:54.798Z,2.00
2019-01-30T12:12:54.799Z,2.80
2019-01-30T12:13:54.816Z,2.70
2019-01-30T12:14:55.064Z,1.80
2019-01-30T12:16:00.707Z,2.20
2019-01-30T12:17:57.952Z,1.80
2019-01-30T12:28:14.410Z,2.50
2019-01-30T12:29:36.485Z,1.80
2019-01-30T12:30:57.102Z,2.10
2019-01-30T12:31:35.771Z,2.10
2019-01-30T12:32:35.860Z,2.70
2019-01-30T12:33:33.886Z,2.30
2019-01-30T12:34:35.830Z,1.90
2019-01-30T12:35:36.116Z,1.90
2019-01-30T12:36:33.883Z,2.10
2019-01-30T12:37:35.574Z,2.00
2019-01-30T12:38:36.546Z,2.00
2019-01-30T12:39:36.705Z,2.10
2019-01-30T12:40:35.592Z,2.00
2019-01-30T12:41:36.308Z,2.20
2019-01-30T12:42:33.789Z,1.80
2019-01-30T12:43:36.435Z,2.40
2019-01-30T12:44:36.787Z,2.20
2019-01-30T12:45:35.795Z,2.10
2019-01-30T12:46:36.201Z,2.40
2019-01-30T12:47:33.939Z,2.10
2019-01-30T12:48:34.825Z,2.10
2019-01-30T12:49:35.083Z,1.80
2019-01-30T12:50:34.939Z,1.90
2019-01-30T12:51:36.194Z,1.90
2019-01-30T12:52:42.520Z,2.00
2019-01-30T12:53:34.930Z,2.10
2019-01-30T12:54:42.395Z,2.10
2019-01-30T12:55:35.474Z,1.90
2019-01-30T12:56:35.332Z,2.20
2019-01-30T12:57:34.890Z,1.90
2019-01-30T12:58:36.925Z,2.00
2019-01-30T12:59:35.003Z,1.80
2019-01-30T13:00:40.199Z,1.80
2019-01-30T13:01:41.189Z,1.90
2019-01-30T13:02:47.032Z,1.80
2019-01-30T13:03:38.295Z,1.80
2019-01-30T13:04:46.998Z,2.00
2019-01-30T13:05:47.757Z,1.90
2019-01-30T13:06:40.543Z,2.20
2019-01-30T13:07:37.380Z,1.80
2019-01-30T13:08:51.017Z,2.00
2019-01-30T13:09:39.864Z,2.10
2019-01-30T13:10:38.375Z,1.60
2019-01-30T13:11:39.701Z,1.70
2019-01-30T13:12:41.389Z,2.00
2019-01-30T13:13:36.280Z,2.20
2019-01-30T13:14:39.229Z,2.00
2019-01-30T13:15:38.649Z,2.20
2019-01-30T13:16:41.039Z,2.40
2019-01-30T13:17:41.178Z,2.30
2019-01-30T13:18:37.596Z,2.40
2019-01-30T13:19:38.962Z,2.10
2019-01-30T13:20:34.954Z,2.00
2019-01-30T13:21:35.635Z,2.20
2019-01-30T13:22:39.762Z,1.90
2019-01-30T13:23:38.472Z,2.10
2019-01-30T13:24:35.462Z,2.00
2019-01-30T13:25:34.269Z,2.30
2019-01-30T13:26:35.951Z,2.20
2019-01-30T13:27:35.774Z,2.40
2019-01-30T13:28:35.140Z,1.90
2019-01-30T13:29:35.220Z,2.20
2019-01-30T13:30:35.893Z,2.00
2019-01-30T13:31:35.597Z,1.80
2019-01-30T13:32:42.685Z,2.00
2019-01-30T13:33:34.800Z,2.00
2019-01-30T13:34:35.704Z,1.80
2019-01-30T13:35:51.867Z,2.20
2019-01-30T13:36:46.295Z,2.00
2019-01-30T13:37:47.342Z,2.30
2019-01-30T13:38:40.726Z,1.80
2019-01-30T13:39:46.897Z,2.30
2019-01-30T13:40:44.917Z,1.80
2019-01-30T13:41:52.984Z,1.80
2019-01-30T13:42:43.674Z,2.10
2019-01-30T13:43:43.752Z,2.10
2019-01-30T13:44:49.703Z,1.90
2019-01-30T13:45:34.581Z,2.20
2019-01-30T13:46:47.414Z,2.30
2019-01-30T13:47:39.616Z,2.00
2019-01-30T13:48:36.466Z,2.00
2019-01-30T13:49:41.530Z,2.30
2019-01-30T13:50:46.566Z,2.30
2019-01-30T13:51:33.612Z,2.40
2019-01-30T13:52:36.648Z,2.10
2019-01-30T13:53:41.859Z,2.30
2019-01-30T13:54:43.713Z,2.10
2019-01-30T13:55:40.067Z,1.90
2019-01-30T13:56:42.337Z,2.10
2019-01-30T13:57:35.982Z,2.10
2019-01-30T13:58:48.898Z,2.10
2019-01-30T13:59:45.747Z,2.00
2019-01-30T14:00:42.228Z,2.10
2019-01-30T14:01:51.948Z,1.90
2019-01-30T14:02:41.534Z,1.90
2019-01-30T14:03:41.334Z,1.90
2019-01-30T14:04:41.665Z,2.20
2019-01-30T14:05:45.271Z,1.80
2019-01-30T14:06:41.679Z,2.00
2019-01-30T14:07:42.378Z,1.60
2019-01-30T14:08:40.267Z,1.90
2019-01-30T14:09:41.633Z,2.40
2019-01-30T14:10:37.259Z,2.10
2019-01-30T14:11:39.396Z,2.10
2019-01-30T14:12:43.621Z,1.80
2019-01-30T14:13:39.749Z,1.80
2019-01-30T14:14:36.695Z,1.70
2019-01-30T14:15:47.855Z,1.90
2019-01-30T14:16:37.768Z,1.80
2019-01-30T14:17:42.731Z,2.00
2019-01-30T14:18:34.473Z,1.60
2019-01-30T14:19:34.196Z,1.90
2019-01-30T14:20:37.196Z,1.60
2019-01-30T14:21:41.915Z,1.70
2019-01-30T14:22:59.670Z,2.10
2019-01-30T14:23:39.180Z,1.80
2019-01-30T14:24:45.321Z,1.80
2019-01-30T14:25:41.531Z,1.50
2019-01-30T14:26:37.321Z,1.90
2019-01-30T14:27:38.973Z,1.80
2019-01-30T14:28:32.591Z,1.70
2019-01-30T14:29:32.433Z,1.80
2019-01-30T14:30:32.316Z,1.90
2019-01-30T14:31:32.324Z,1.70
2019-01-30T14:32:32.645Z,1.90
2019-01-30T14:33:34.921Z,1.90
2019-01-30T14:34:33.407Z,1.80
2019-01-30T14:35:33.424Z,1.70
2019-01-30T14:36:41.042Z,1.70
2019-01-30T14:37:34.931Z,1.60
2019-01-30T14:38:33.570Z,1.70
2019-01-30T14:39:34.174Z,1.90
2019-01-30T14:40:33.938Z,1.80
2019-01-30T14:41:33.530Z,1.70
2019-01-30T14:42:33.766Z,1.80
2019-01-30T14:43:32.342Z,1.70
2019-01-30T14:44:33.464Z,1.80
2019-01-30T14:45:33.054Z,1.90
2019-01-30T14:46:47.703Z,1.90
2019-01-30T14:47:33.354Z,1.80
2019-01-30T14:48:38.225Z,2.00
2019-01-30T14:49:40.310Z,2.40
2019-01-30T14:50:38.888Z,2.00
2019-01-30T14:52:01.375Z,2.20
2019-01-30T14:52:46.542Z,1.80
2019-01-30T14:53:32.380Z,2.10
2019-01-30T14:55:46.496Z,2.00
2019-01-30T14:56:40.565Z,1.90
2019-01-30T14:57:42.042Z,2.30
2019-01-30T14:58:39.687Z,2.10
2019-01-30T14:59:39.063Z,2.00
2019-01-30T15:01:55.606Z,1.90
2019-01-30T15:02:55.072Z,1.90
2019-01-30T15:03:58.826Z,2.30
2019-01-30T15:04:54.601Z,2.50
2019-01-30T15:05:53.327Z,2.30
2019-01-30T15:06:53.637Z,2.10
2019-01-30T15:07:55.037Z,1.90
2019-01-30T15:09:02.797Z,2.20
2019-01-30T15:09:54.564Z,2.30
2019-01-30T15:10:54.046Z,2.10
2019-01-30T15:11:54.637Z,1.80
2019-01-30T15:12:55.453Z,1.80
2019-01-30T15:13:56.849Z,1.80
2019-01-30T15:14:57.047Z,2.00
2019-01-30T15:15:56.535Z,1.90
2019-01-30T15:16:55.204Z,2.00
2019-01-30T15:17:55.597Z,1.70
2019-01-30T15:18:55.690Z,1.80
2019-01-30T15:19:56.972Z,2.00
2019-01-30T15:20:54.569Z,2.00
2019-01-30T15:21:56.799Z,2.00
2019-01-30T15:22:53.943Z,2.30
2019-01-30T15:23:54.549Z,1.80
2019-01-30T15:24:53.530Z,1.60
2019-01-30T15:25:54.966Z,1.70
2019-01-30T15:26:59.544Z,1.80
2019-01-30T15:27:54.310Z,1.70
2019-01-30T15:28:53.031Z,1.70
2019-01-30T15:37:52.839Z,1.50
2019-01-30T15:38:51.432Z,1.60
2019-01-30T15:39:51.440Z,1.90
2019-01-30T15:40:49.592Z,1.80
2019-01-30T15:41:52.350Z,1.90
2019-01-30T15:42:51.829Z,1.70
2019-01-30T15:43:51.473Z,1.70
2019-01-30T15:44:49.389Z,1.70
2019-01-30T15:45:49.377Z,1.70
2019-01-30T15:46:49.364Z,1.60
2019-01-30T15:47:49.395Z,1.50
2019-01-30T15:48:49.354Z,1.60
2019-01-30T15:49:49.453Z,1.50
2019-01-30T15:50:49.385Z,1.40
2019-01-30T15:51:49.368Z,1.40
2019-01-30T15:52:49.321Z,1.40
2019-01-30T15:53:49.417Z,1.40
2019-01-30T15:54:49.284Z,1.40
2019-01-30T15:55:49.323Z,1.40
2019-01-30T15:56:49.355Z,1.20
2019-01-30T15:57:49.342Z,1.70
2019-01-30T15:58:49.277Z,1.20
2019-01-30T15:59:49.316Z,1.70
2019-01-30T16:00:49.242Z,1.50
